Time;durP1;ratioP1;P1;durP2;ratioP2;P2;SDS_P1;SDS_P2;PMS_P1;PMS_P2;Temp;Humidity;BMP_temperature;BMP_pressure;BME280_temperature;BME280_humidity;BME280_pressure;Samples;Min_cycle;Max_cycle;Signal;HPM_P1;HPM_P2
2022/08/25 00:00:28;;;;;;;13.87;12.07;;;;;;;18.74;100.00;92798.75;5036430;28;20320;-70
2022/08/25 00:02:54;;;;;;;14.60;11.47;;;;;;;18.82;100.00;92802.41;5050632;28;20205;-69
2022/08/25 00:05:20;;;;;;;17.80;12.17;;;;;;;18.77;100.00;92794.69;5049346;28;20240;-70
2022/08/25 00:07:46;;;;;;;18.97;12.90;;;;;;;18.64;100.00;92780.63;5049973;28;20301;-70
2022/08/25 00:10:11;;;;;;;13.07;11.73;;;;;;;18.65;100.00;92770.81;5033749;28;20257;-68
2022/08/25 00:12:36;;;;;;;18.83;12.37;;;;;;;18.80;100.00;92794.06;5020336;28;20209;-70
2022/08/25 00:15:03;;;;;;;19.03;12.10;;;;;;;18.91;100.00;92795.19;5017013;28;20217;-70
2022/08/25 00:17:28;;;;;;;15.20;12.97;;;;;;;18.85;100.00;92765.50;5049285;28;20189;-70
2022/08/25 00:19:53;;;;;;;14.53;10.87;;;;;;;18.93;100.00;92771.81;5046106;28;20733;-70
2022/08/25 00:22:19;;;;;;;20.30;12.17;;;;;;;18.98;100.00;92775.06;5030576;28;20177;-70
2022/08/25 00:24:44;;;;;;;16.27;12.10;;;;;;;19.01;100.00;92784.19;5029479;28;20246;-70
2022/08/25 00:27:11;;;;;;;19.33;11.17;;;;;;;18.94;100.00;92787.38;5030339;28;20284;-70
2022/08/25 00:29:37;;;;;;;16.87;13.17;;;;;;;19.03;100.00;92792.59;5029712;28;20236;-70
2022/08/25 00:32:04;;;;;;;13.13;11.83;;;;;;;18.86;100.00;92767.03;5030288;28;20188;-71
2022/08/25 00:34:33;;;;;;;14.80;11.93;;;;;;;19.00;100.00;92780.03;5030265;28;20288;-70
2022/08/25 00:36:59;;;;;;;19.73;11.57;;;;;;;18.88;100.00;92764.06;5029958;28;20197;-70
2022/08/25 00:39:26;;;;;;;14.07;11.00;;;;;;;18.96;100.00;92789.69;5029696;28;20284;-70
2022/08/25 00:41:55;;;;;;;15.25;11.77;;;;;;;18.97;100.00;92799.19;5048180;28;20208;-70
2022/08/25 00:44:21;;;;;;;17.17;12.13;;;;;;;18.70;100.00;92757.41;5049669;28;20220;-70
2022/08/25 00:46:52;;;;;;;16.60;12.10;;;;;;;18.89;100.00;92792.09;5041313;28;20207;-71
2022/08/25 00:49:19;;;;;;;19.43;11.50;;;;;;;18.82;100.00;92789.97;5029837;28;20752;-70
2022/08/25 00:51:52;;;;;;;12.63;11.43;;;;;;;18.75;100.00;92781.00;5047014;28;20201;-70
2022/08/25 00:54:24;;;;;;;12.97;11.53;;;;;;;18.88;100.00;92814.34;5047478;28;20223;-70
2022/08/25 00:56:50;;;;;;;17.87;11.97;;;;;;;18.88;100.00;92801.91;5047669;28;20177;-70
2022/08/25 00:59:20;;;;;;;16.52;12.25;;;;;;;18.87;100.00;92795.06;5049493;28;20229;-71
2022/08/25 01:01:46;;;;;;;18.93;12.13;;;;;;;18.87;100.00;92762.53;5049054;28;20192;-70
2022/08/25 01:04:12;;;;;;;13.80;11.47;;;;;;;18.95;100.00;92781.00;5049833;28;20285;-70
2022/08/25 01:06:42;;;;;;;14.53;12.90;;;;;;;18.92;100.00;92780.88;5048511;28;20207;-71
2022/08/25 01:09:08;;;;;;;15.17;13.13;;;;;;;18.93;100.00;92771.81;5042000;28;20240;-71
2022/08/25 01:11:34;;;;;;;14.57;12.20;;;;;;;18.99;100.00;92771.28;5029262;28;20212;-70
2022/08/25 01:14:05;;;;;;;20.20;12.57;;;;;;;18.95;100.00;92772.28;5029357;28;20289;-70
2022/08/25 01:16:32;;;;;;;15.07;13.60;;;;;;;18.84;100.00;92747.31;5029213;28;20197;-70
2022/08/25 01:18:59;;;;;;;17.70;13.33;;;;;;;18.96;100.00;92766.66;5028228;28;20240;-72
2022/08/25 01:21:27;;;;;;;25.13;13.47;;;;;;;18.93;100.00;92740.84;5029321;28;20247;-70
2022/08/25 01:23:55;;;;;;;18.13;13.73;;;;;;;18.98;100.00;92734.56;5029260;28;20226;-70
2022/08/25 01:26:25;;;;;;;14.37;13.07;;;;;;;19.14;100.00;92759.34;5046059;28;20189;-70
2022/08/25 01:31:36;;;;;;;22.37;14.27;;;;;;;19.11;100.00;92746.75;5051978;28;20198;-70
2022/08/25 01:34:04;;;;;;;16.07;14.40;;;;;;;19.15;100.00;92760.88;5052817;28;20229;-70
2022/08/25 01:36:30;;;;;;;17.67;15.70;;;;;;;19.12;100.00;92750.94;5036101;28;20260;-68
2022/08/25 01:38:56;;;;;;;17.87;14.83;;;;;;;19.30;100.00;92768.22;5031522;28;20233;-70
2022/08/25 01:41:30;;;;;;;21.47;15.27;;;;;;;19.23;100.00;92764.53;5032056;28;20205;-70
2022/08/25 01:43:56;;;;;;;16.80;14.05;;;;;;;19.37;100.00;92763.16;5032459;28;20297;-70
2022/08/25 01:46:21;;;;;;;19.37;15.43;;;;;;;19.28;100.00;92756.41;5032189;28;20193;-69
2022/08/25 01:48:47;;;;;;;19.33;14.07;;;;;;;19.38;100.00;92756.00;5032232;28;20226;-70
2022/08/25 01:51:14;;;;;;;17.47;14.90;;;;;;;19.44;100.00;92760.72;5032645;28;20186;-70
2022/08/25 01:53:40;;;;;;;22.37;15.87;;;;;;;19.45;100.00;92756.22;5032043;28;20213;-71
2022/08/25 01:56:14;;;;;;;20.00;16.03;;;;;;;19.41;100.00;92750.03;5044491;28;20189;-70
2022/08/25 01:58:43;;;;;;;17.55;14.75;;;;;;;19.38;100.00;92740.88;5051866;28;20183;-70
2022/08/25 02:01:14;;;;;;;21.07;15.13;;;;;;;19.43;100.00;92759.19;5051742;28;20423;-70
2022/08/25 02:03:42;;;;;;;20.45;15.82;;;;;;;19.44;100.00;92744.84;5052092;28;20173;-69
2022/08/25 02:06:13;;;;;;;18.50;16.57;;;;;;;19.38;100.00;92746.16;5051076;28;20185;-71
2022/08/25 02:08:40;;;;;;;25.37;16.10;;;;;;;19.37;100.00;92734.03;5051482;28;20291;-70
2022/08/25 02:11:05;;;;;;;21.57;16.80;;;;;;;19.45;100.00;92740.34;5051406;28;20186;-70
2022/08/25 02:13:31;;;;;;;18.63;15.17;;;;;;;19.50;100.00;92743.56;5051695;28;20192;-71
2022/08/25 02:15:59;;;;;;;20.33;17.17;;;;;;;19.40;100.00;92745.84;5051505;28;20218;-70
2022/08/25 02:18:24;;;;;;;29.20;17.87;;;;;;;19.39;100.00;92742.44;5051242;28;20181;-74
2022/08/25 02:20:50;;;;;;;25.65;16.23;;;;;;;19.46;100.00;92740.00;5041352;28;20214;-70
2022/08/25 02:23:16;;;;;;;20.38;17.55;;;;;;;19.35;100.00;92728.28;5031922;28;20219;-70
2022/08/25 02:25:42;;;;;;;19.80;16.45;;;;;;;19.18;100.00;92704.63;5031041;28;20221;-70
2022/08/25 02:28:08;;;;;;;17.97;15.70;;;;;;;19.58;100.00;92734.72;5031937;28;20245;-70
2022/08/25 02:30:35;;;;;;;26.80;17.63;;;;;;;19.59;100.00;92736.28;5038991;28;20217;-70
2022/08/25 02:33:00;;;;;;;19.20;17.13;;;;;;;19.67;100.00;92742.56;5052030;28;20268;-69
2022/08/25 02:35:26;;;;;;;23.00;16.50;;;;;;;19.67;100.00;92732.75;5051045;28;20229;-70
2022/08/25 02:37:52;;;;;;;25.40;17.90;;;;;;;19.65;100.00;92734.94;5038194;28;20186;-70
2022/08/25 02:40:20;;;;;;;24.98;17.15;;;;;;;19.71;100.00;92744.22;5030192;28;20229;-70
2022/08/25 02:42:46;;;;;;;19.47;15.27;;;;;;;19.69;100.00;92740.38;5031735;28;20259;-70
2022/08/25 02:45:12;;;;;;;24.15;16.70;;;;;;;19.73;100.00;92741.25;5030700;28;20224;-70
2022/08/25 02:47:39;;;;;;;20.67;16.40;;;;;;;19.66;100.00;92741.78;5031253;28;20219;-70
2022/08/25 02:50:04;;;;;;;19.75;15.98;;;;;;;19.47;100.00;92723.00;5030444;28;20243;-70
2022/08/25 02:52:30;;;;;;;19.48;16.27;;;;;;;19.52;100.00;92725.44;5031633;28;20187;-69
2022/08/25 02:54:56;;;;;;;17.73;16.02;;;;;;;19.56;100.00;92736.94;5029805;28;20236;-70
2022/08/25 02:57:21;;;;;;;26.10;16.93;;;;;;;19.73;100.00;92751.84;5031600;28;20265;-70
2022/08/25 02:59:47;;;;;;;20.70;16.92;;;;;;;19.71;99.98;92738.13;5030522;28;20237;-70
2022/08/25 03:02:13;;;;;;;19.90;15.45;;;;;;;19.59;99.92;92723.03;5031517;28;20190;-70
2022/08/25 03:04:39;;;;;;;19.33;17.30;;;;;;;19.65;100.00;92736.81;5030842;28;20763;-69
2022/08/25 03:07:04;;;;;;;18.00;16.00;;;;;;;19.81;100.00;92754.41;5031159;28;20227;-71
2022/08/25 03:09:30;;;;;;;20.07;16.03;;;;;;;19.49;100.00;92747.28;5030674;28;20251;-69
2022/08/25 03:11:56;;;;;;;19.73;16.07;;;;;;;19.27;100.00;92739.72;5048821;28;20184;-70
2022/08/25 03:14:21;;;;;;;24.47;15.90;;;;;;;19.35;100.00;92730.19;5050887;28;20233;-69
2022/08/25 03:16:46;;;;;;;19.55;16.13;;;;;;;19.41;100.00;92742.09;5031279;28;20190;-70
2022/08/25 03:19:12;;;;;;;20.10;16.75;;;;;;;19.35;100.00;92744.19;5030511;28;20225;-70
2022/08/25 03:21:38;;;;;;;18.70;16.60;;;;;;;19.24;100.00;92727.13;5030650;28;20200;-69
2022/08/25 03:24:04;;;;;;;23.13;15.77;;;;;;;19.17;100.00;92714.44;5030580;28;20228;-70
2022/08/25 03:29:14;;;;;;;18.97;15.30;;;;;;;19.21;100.00;92748.22;5050461;28;20232;-70
2022/08/25 03:31:42;;;;;;;20.13;15.57;;;;;;;19.24;100.00;92755.50;5049858;28;20218;-70
2022/08/25 03:34:08;;;;;;;22.63;14.37;;;;;;;19.31;100.00;92761.84;5050738;28;20226;-71
2022/08/25 03:36:33;;;;;;;18.77;16.40;;;;;;;19.17;100.00;92745.44;5033802;28;20220;-70
2022/08/25 03:38:59;;;;;;;17.17;15.37;;;;;;;19.25;100.00;92757.81;5030294;28;20230;-71
2022/08/25 03:41:31;;;;;;;17.87;16.03;;;;;;;19.15;100.00;92753.72;5044959;28;20225;-70
2022/08/25 03:43:57;;;;;;;20.55;16.35;;;;;;;19.05;100.00;92738.22;5040864;28;20306;-70
2022/08/25 03:46:28;;;;;;;24.37;15.63;;;;;;;19.13;100.00;92747.19;5038140;28;20182;-70
2022/08/25 03:48:54;;;;;;;18.23;15.97;;;;;;;18.91;100.00;92724.53;5029784;28;20226;-71
2022/08/25 03:51:27;;;;;;;19.23;15.93;;;;;;;18.98;100.00;92726.63;5030162;28;20190;-70
2022/08/25 03:53:52;;;;;;;22.60;15.20;;;;;;;19.11;100.00;92744.09;5030006;28;20221;-70
2022/08/25 03:56:18;;;;;;;19.07;15.97;;;;;;;19.09;100.00;92736.50;5030713;28;20206;-70
2022/08/25 03:58:44;;;;;;;18.57;15.67;;;;;;;19.10;100.00;92739.91;5029708;28;20231;-70
2022/08/25 04:01:10;;;;;;;16.53;14.83;;;;;;;19.11;100.00;92731.63;5029871;28;20240;-70
2022/08/25 04:03:35;;;;;;;18.30;14.97;;;;;;;19.15;100.00;92737.03;5029956;28;20177;-70
2022/08/25 04:06:03;;;;;;;18.83;15.70;;;;;;;19.10;100.00;92747.84;5029750;28;20193;-69
2022/08/25 04:08:29;;;;;;;16.60;14.87;;;;;;;19.07;100.00;92716.72;5029843;28;20245;-70
2022/08/25 04:10:54;;;;;;;22.80;15.50;;;;;;;19.25;100.00;92734.00;5029972;28;20215;-70
2022/08/25 04:13:20;;;;;;;30.80;15.80;;;;;;;19.21;100.00;92734.97;5014768;28;20191;-70
2022/08/25 04:15:45;;;;;;;17.70;15.20;;;;;;;19.24;100.00;92736.97;5019504;28;21024;-72
2022/08/25 04:18:12;;;;;;;16.63;13.63;;;;;;;19.36;100.00;92748.38;5030369;28;20181;-72
2022/08/25 04:20:37;;;;;;;16.90;15.20;;;;;;;19.23;100.00;92719.53;5037566;28;20222;-70
2022/08/25 04:23:03;;;;;;;18.73;16.03;;;;;;;19.37;100.00;92743.84;5049713;28;20185;-71
2022/08/25 04:25:29;;;;;;;18.20;14.67;;;;;;;19.47;100.00;92733.59;5041482;28;20229;-70
2022/08/25 04:27:54;;;;;;;16.77;14.80;;;;;;;19.61;100.00;92738.59;5029958;28;20173;-70
2022/08/25 04:30:20;;;;;;;18.37;14.37;;;;;;;19.52;100.00;92733.38;5029114;28;20222;-68
2022/08/25 04:32:47;;;;;;;21.33;15.30;;;;;;;19.57;100.00;92737.69;5030068;28;20185;-72
2022/08/25 04:35:13;;;;;;;17.45;14.45;;;;;;;19.66;100.00;92743.69;5029378;28;20252;-70
2022/08/25 04:37:39;;;;;;;21.53;14.90;;;;;;;19.72;100.00;92740.47;5029990;28;20184;-70
2022/08/25 04:40:05;;;;;;;15.13;13.67;;;;;;;19.75;100.00;92745.09;5029036;28;20846;-70
2022/08/25 04:42:31;;;;;;;16.90;14.97;;;;;;;19.66;100.00;92725.88;5030007;28;20204;-70
2022/08/25 04:44:56;;;;;;;18.65;13.95;;;;;;;19.62;100.00;92719.72;5027956;28;20314;-70
2022/08/25 04:47:22;;;;;;;16.50;13.67;;;;;;;19.88;100.00;92738.69;5029882;28;20356;-69
2022/08/25 04:49:48;;;;;;;16.23;14.63;;;;;;;19.91;100.00;92730.09;5030412;28;20225;-70
2022/08/25 04:52:13;;;;;;;22.52;15.23;;;;;;;20.14;99.05;92741.78;5049745;28;20195;-71
2022/08/25 04:54:39;;;;;;;16.10;14.43;;;;;;;20.38;97.42;92756.91;5048225;28;20758;-70
2022/08/25 04:57:05;;;;;;;17.50;13.97;;;;;;;20.57;95.61;92757.88;5049787;28;20204;-70
2022/08/25 04:59:30;;;;;;;17.27;13.65;;;;;;;20.59;94.90;92768.91;5049512;28;20251;-70
2022/08/25 05:01:57;;;;;;;17.42;14.55;;;;;;;20.88;94.02;92753.78;5033613;28;20221;-70
2022/08/25 05:04:23;;;;;;;20.77;14.13;;;;;;;20.91;93.83;92753.88;5032789;28;20318;-69
2022/08/25 05:06:49;;;;;;;18.67;14.20;;;;;;;21.02;92.72;92759.50;5032229;28;20193;-70
2022/08/25 05:09:14;;;;;;;16.27;13.52;;;;;;;21.24;91.15;92765.03;5033105;28;20245;-70
2022/08/25 05:11:40;;;;;;;18.85;13.68;;;;;;;21.18;91.84;92762.97;5030876;28;20186;-71
2022/08/25 05:14:10;;;;;;;17.75;14.35;;;;;;;20.73;94.00;92741.22;5013164;28;20560;-69
2022/08/25 05:16:36;;;;;;;17.25;14.57;;;;;;;21.13;93.48;92761.34;5046053;28;20203;-70
2022/08/25 05:19:01;;;;;;;17.73;13.93;;;;;;;21.25;92.52;92757.84;5052809;28;20769;-70
2022/08/25 05:21:27;;;;;;;19.15;13.88;;;;;;;21.05;91.89;92730.41;5037085;28;20212;-70
2022/08/25 05:23:56;;;;;;;20.90;13.68;;;;;;;21.36;89.83;92742.94;5032875;28;20288;-72
2022/08/25 05:26:22;;;;;;;14.38;12.30;;;;;;;21.34;91.75;92742.53;5032672;28;20199;-72
2022/08/25 05:28:50;;;;;;;19.63;14.13;;;;;;;21.52;89.53;92738.44;5032336;28;20224;-70
2022/08/25 05:31:16;;;;;;;14.88;13.15;;;;;;;21.41;90.37;92732.84;5032690;28;20196;-70
2022/08/25 05:33:43;;;;;;;18.38;13.95;;;;;;;21.67;88.09;92733.13;5032616;28;20196;-70
2022/08/25 05:36:10;;;;;;;19.75;13.27;;;;;;;22.15;85.10;92747.94;5038577;28;20269;-70
2022/08/25 05:38:36;;;;;;;18.15;12.90;;;;;;;22.36;83.33;92745.75;5032294;28;20175;-70
2022/08/25 05:41:09;;;;;;;20.63;12.57;;;;;;;22.64;81.37;92749.06;5044162;28;20230;-70
2022/08/25 05:43:39;;;;;;;14.45;12.63;;;;;;;23.03;81.26;92760.47;5052128;28;20181;-70
2022/08/25 05:46:06;;;;;;;18.25;12.55;;;;;;;22.72;82.18;92756.06;5049851;28;20194;-70
2022/08/25 05:48:31;;;;;;;15.23;13.68;;;;;;;22.43;83.99;92755.78;5032341;28;20189;-71
2022/08/25 05:50:59;;;;;;;16.10;13.07;;;;;;;22.79;82.62;92761.53;5032230;28;20194;-69
2022/08/25 05:53:26;;;;;;;20.10;13.77;;;;;;;22.79;81.92;92756.19;5032274;28;20185;-74
2022/08/25 05:55:53;;;;;;;18.95;12.40;;;;;;;22.61;82.10;92763.06;5042467;28;20188;-70
2022/08/25 05:58:19;;;;;;;17.65;13.18;;;;;;;22.53;82.14;92757.91;5052525;28;20185;-70
2022/08/25 06:00:45;;;;;;;16.13;10.80;;;;;;;22.18;80.60;92756.00;5051061;28;20224;-71
2022/08/25 06:03:10;;;;;;;22.85;11.75;;;;;;;21.81;81.12;92743.34;5052301;28;20210;-69
2022/08/25 06:05:36;;;;;;;14.23;11.05;;;;;;;22.42;79.13;92755.00;5051405;28;20217;-70
2022/08/25 06:08:02;;;;;;;14.75;10.30;;;;;;;23.07;75.99;92756.75;5052168;28;20244;-70
2022/08/25 06:10:27;;;;;;;20.02;11.02;;;;;;;23.32;75.27;92757.25;5043420;28;20272;-70
2022/08/25 06:12:53;;;;;;;11.48;10.30;;;;;;;23.71;74.67;92750.72;5020291;28;20190;-69
2022/08/25 06:15:21;;;;;;;12.13;10.90;;;;;;;22.75;76.10;92759.91;5018226;28;20216;-70
2022/08/25 06:17:48;;;;;;;12.80;10.38;;;;;;;22.95;75.79;92770.22;5032158;28;20209;-70
2022/08/25 06:20:17;;;;;;;18.52;11.82;;;;;;;23.40;76.62;92758.94;5031397;28;20242;-70
2022/08/25 06:22:43;;;;;;;12.30;10.80;;;;;;;23.00;75.44;92748.66;5032161;28;20186;-70
2022/08/25 06:25:10;;;;;;;11.77;10.57;;;;;;;22.83;73.62;92765.06;5034657;28;20285;-70
2022/08/25 06:27:36;;;;;;;15.25;11.77;;;;;;;23.15;73.89;92747.78;5051658;28;20200;-70
2022/08/25 06:30:03;;;;;;;13.57;11.45;;;;;;;22.92;77.95;92757.63;5050786;28;20232;-71
2022/08/25 06:32:34;;;;;;;13.40;11.27;;;;;;;23.36;73.46;92758.84;5044167;28;20185;-70
2022/08/25 06:35:00;;;;;;;11.55;10.57;;;;;;;23.83;72.92;92753.19;5034856;28;20232;-70
2022/08/25 06:37:26;;;;;;;18.40;12.25;;;;;;;23.74;72.15;92764.13;5042123;28;20176;-70
2022/08/25 06:39:51;;;;;;;16.73;11.85;;;;;;;23.80;74.34;92755.81;5030813;28;20258;-70
2022/08/25 06:42:17;;;;;;;15.15;10.48;;;;;;;24.00;69.89;92754.66;5031935;28;20209;-70
2022/08/25 06:44:42;;;;;;;14.63;13.27;;;;;;;23.75;69.92;92746.22;5031576;28;20218;-70
2022/08/25 06:47:08;;;;;;;12.93;11.60;;;;;;;23.72;72.79;92758.38;5039785;28;20284;-72
2022/08/25 06:49:34;;;;;;;15.25;11.63;;;;;;;24.40;69.65;92760.22;5030760;28;20231;-70
2022/08/25 06:52:00;;;;;;;15.05;12.15;;;;;;;23.88;73.11;92768.16;5050608;28;20257;-71
2022/08/25 06:54:25;;;;;;;13.48;11.35;;;;;;;23.35;71.84;92757.31;5051150;28;20237;-70
2022/08/25 06:56:51;;;;;;;12.68;11.55;;;;;;;23.58;72.10;92786.69;5031908;28;20213;-70
2022/08/25 06:59:16;;;;;;;18.17;11.45;;;;;;;23.89;70.55;92767.03;5030809;28;20235;-70
2022/08/25 07:01:42;;;;;;;18.48;11.18;;;;;;;23.95;68.56;92762.94;5031024;28;20204;-70
2022/08/25 07:04:07;;;;;;;11.30;9.98;;;;;;;24.23;67.80;92758.06;5030970;28;20318;-70
2022/08/25 07:06:36;;;;;;;16.30;11.40;;;;;;;24.09;69.54;92765.84;5047114;28;20263;-70
2022/08/25 07:09:05;;;;;;;13.27;11.38;;;;;;;24.51;69.02;92780.59;5050527;28;20301;-70
2022/08/25 07:11:33;;;;;;;13.02;11.57;;;;;;;24.69;66.19;92781.66;5049468;28;20181;-71
2022/08/25 07:14:02;;;;;;;13.27;11.98;;;;;;;24.40;66.33;92760.22;5030460;28;20239;-70
2022/08/25 07:16:30;;;;;;;12.55;11.43;;;;;;;24.69;66.72;92765.63;5030878;28;20184;-70
2022/08/25 07:18:56;;;;;;;14.35;11.10;;;;;;;25.03;66.16;92767.19;5030620;28;20262;-70
2022/08/25 07:21:24;;;;;;;16.58;10.80;;;;;;;24.73;67.72;92768.34;5044984;28;20207;-70
2022/08/25 07:23:50;;;;;;;17.73;10.65;;;;;;;24.54;67.46;92771.88;5049509;28;20236;-69
2022/08/25 07:26:21;;;;;;;13.55;10.40;;;;;;;24.87;65.99;92766.59;5049983;28;20217;-70
2022/08/25 07:28:47;;;;;;;20.08;10.93;;;;;;;24.94;65.69;92777.41;5042048;28;20249;-70
2022/08/25 07:31:13;;;;;;;17.08;10.60;;;;;;;24.57;65.88;92757.03;5030188;28;20194;-70
2022/08/25 07:35:13;;;;;;;15.88;11.57;;;;;;;23.99;68.57;92731.75;5030073;28;20277;-70
2022/08/25 07:36:24;;;;;;;18.55;11.40;;;;;;;24.97;66.58;92775.91;5030692;28;20232;-70
2022/08/25 07:38:49;;;;;;;12.73;10.50;;;;;;;24.85;65.78;92774.25;5030656;28;20241;-70
2022/08/25 07:41:15;;;;;;;15.95;10.23;;;;;;;25.02;64.86;92730.16;5043594;28;20197;-71
2022/08/25 07:43:40;;;;;;;19.40;11.10;;;;;;;24.31;66.63;92767.72;5049871;28;20195;-70
2022/08/25 07:46:06;;;;;;;18.17;10.30;;;;;;;24.33;67.41;92768.88;5034364;28;20176;-71
2022/08/25 07:48:31;;;;;;;13.70;10.75;;;;;;;24.80;65.60;92771.88;5029919;28;20221;-73
2022/08/25 07:50:56;;;;;;;16.60;10.43;;;;;;;24.73;65.19;92761.09;5030108;28;20194;-71
2022/08/25 07:53:22;;;;;;;18.00;10.60;;;;;;;24.93;65.46;92772.41;5030314;28;20196;-72
2022/08/25 07:55:47;;;;;;;15.38;10.57;;;;;;;25.30;63.16;92765.22;5029364;28;20215;-71
2022/08/25 07:58:14;;;;;;;14.25;9.93;;;;;;;25.29;62.39;92747.66;5030483;28;20187;-70
2022/08/25 08:00:40;;;;;;;16.60;10.18;;;;;;;25.30;62.08;92759.88;5037798;28;20281;-71
2022/08/25 08:03:08;;;;;;;18.98;10.63;;;;;;;25.26;63.23;92764.44;5050170;28;20191;-71
2022/08/25 08:05:35;;;;;;;19.23;11.10;;;;;;;25.08;65.91;92755.41;5041674;28;20215;-71
2022/08/25 08:08:01;;;;;;;19.33;11.85;;;;;;;25.20;64.47;92776.56;5030269;28;20223;-70
2022/08/25 08:10:27;;;;;;;17.50;10.07;;;;;;;25.60;62.32;92775.88;5029429;28;20242;-70
2022/08/25 08:12:52;;;;;;;16.50;9.82;;;;;;;25.67;63.55;92760.66;5018599;28;20183;-70
2022/08/25 08:15:18;;;;;;;12.88;10.23;;;;;;;25.67;63.33;92768.69;5015817;28;20218;-70
2022/08/25 08:17:44;;;;;;;21.20;10.65;;;;;;;25.67;63.19;92741.94;5029516;28;20270;-70
2022/08/25 08:20:10;;;;;;;29.05;10.88;;;;;;;25.94;63.60;92759.41;5033506;28;20217;-71
2022/08/25 08:22:41;;;;;;;18.88;10.73;;;;;;;26.18;61.50;92755.41;5049832;28;20186;-70
2022/08/25 08:25:09;;;;;;;17.90;10.20;;;;;;;26.48;59.02;92756.00;5040521;28;20214;-73
2022/08/25 08:27:35;;;;;;;15.75;9.93;;;;;;;25.56;61.55;92749.09;5030083;28;20186;-71
2022/08/25 08:30:01;;;;;;;25.08;10.20;;;;;;;25.40;62.41;92748.56;5029355;28;20681;-71
2022/08/25 08:32:26;;;;;;;12.00;10.23;;;;;;;24.99;63.68;92741.56;5030440;28;20201;-70
2022/08/25 08:34:52;;;;;;;23.67;10.90;;;;;;;24.90;63.12;92738.41;5032028;28;20222;-70
2022/08/25 08:37:18;;;;;;;22.20;10.32;;;;;;;25.23;63.11;92743.78;5034095;28;20182;-71
2022/08/25 08:39:44;;;;;;;18.25;10.65;;;;;;;26.20;59.50;92753.91;5033341;28;20223;-71
2022/08/25 08:42:28;;;;;;;16.13;10.75;;;;;;;26.21;58.79;92747.41;5032823;28;20239;-71
2022/08/25 08:45:20;;;;;;;17.13;11.07;;;;;;;25.95;59.23;92744.88;5033182;28;20226;-71
2022/08/25 08:47:54;;;;;;;29.10;11.23;;;;;;;25.56;62.26;92748.34;5014148;28;20199;-70
2022/08/25 08:50:49;;;;;;;15.32;9.25;;;;;;;25.31;59.87;92745.38;5032577;28;20305;-71
2022/08/25 08:53:26;;;;;;;19.35;10.27;;;;;;;25.61;58.40;92734.63;5034030;28;20183;-71
2022/08/25 08:55:56;;;;;;;18.33;11.13;;;;;;;25.81;57.40;92746.66;5033145;28;20270;-72
2022/08/25 08:58:34;;;;;;;15.07;10.10;;;;;;;25.52;57.98;92726.91;5033665;28;20209;-70
2022/08/25 09:01:00;;;;;;;22.30;10.00;;;;;;;25.57;59.05;92739.97;5044553;28;20708;-70
2022/08/25 09:04:08;;;;;;;22.60;10.98;;;;;;;25.38;58.51;92716.06;5053076;28;20197;-71
2022/08/25 09:06:41;;;;;;;21.42;10.70;;;;;;;25.28;60.58;92746.09;5023045;28;20198;-70
2022/08/25 09:09:10;;;;;;;21.08;9.25;;;;;;;25.35;58.41;92748.91;5033294;28;20234;-69
2022/08/25 09:12:13;;;;;;;17.00;10.82;;;;;;;25.77;57.39;92743.97;5032859;28;20190;-71
2022/08/25 09:15:00;;;;;;;20.77;11.13;;;;;;;25.85;57.01;92755.50;5032477;28;20223;-70
2022/08/25 09:17:55;;;;;;;23.23;9.80;;;;;;;26.15;55.56;92754.22;5033397;28;20175;-70
2022/08/25 09:20:33;;;;;;;9.98;8.82;;;;;;;25.71;56.97;92742.00;5032559;28;20230;-71
2022/08/25 09:23:08;;;;;;;19.63;9.70;;;;;;;25.89;57.99;92738.31;5033579;28;20175;-70
2022/08/25 09:25:50;;;;;;;23.67;11.05;;;;;;;26.02;54.42;92744.97;5031340;28;20242;-71
2022/08/25 09:28:27;;;;;;;21.17;9.43;;;;;;;25.91;54.00;92730.72;5033259;28;20241;-71
2022/08/25 09:30:58;;;;;;;16.55;10.30;;;;;;;26.01;52.70;92743.41;5032679;28;20210;-70
2022/08/25 09:33:26;;;;;;;16.65;8.52;;;;;;;25.97;50.56;92737.25;5033223;28;20241;-71
2022/08/25 09:35:53;;;;;;;29.55;10.13;;;;;;;25.84;54.36;92727.22;5032908;28;20219;-71
2022/08/25 09:38:20;;;;;;;10.88;8.82;;;;;;;25.93;52.93;92738.38;5032909;28;20186;-71
2022/08/25 09:40:53;;;;;;;16.95;8.85;;;;;;;25.65;53.18;92730.84;5031633;28;20215;-71
2022/08/25 09:43:27;;;;;;;21.50;9.48;;;;;;;25.65;54.85;92736.19;5033042;28;20175;-71
2022/08/25 09:46:26;;;;;;;21.58;10.68;;;;;;;25.76;54.76;92731.72;5027376;28;20259;-70
2022/08/25 09:48:58;;;;;;;13.73;9.35;;;;;;;25.85;53.61;92726.84;5032458;28;20261;-70
2022/08/25 09:51:28;;;;;;;24.95;10.27;;;;;;;26.18;53.88;92739.34;5032294;28;20647;-70
2022/08/25 09:54:01;;;;;;;16.55;10.05;;;;;;;26.00;53.96;92747.25;5032390;28;20222;-71
2022/08/25 09:56:30;;;;;;;23.13;9.85;;;;;;;25.96;52.09;92745.66;5047316;28;20190;-71
2022/08/25 09:59:25;;;;;;;16.63;9.40;;;;;;;25.81;53.48;92742.06;5052749;28;20293;-70
2022/08/25 10:01:56;;;;;;;17.58;9.60;;;;;;;25.43;55.26;92739.81;5032978;28;20234;-70
2022/08/25 10:04:26;;;;;;;14.93;9.35;;;;;;;25.00;57.23;92741.22;5032014;28;20233;-70
2022/08/25 10:06:52;;;;;;;25.25;10.38;;;;;;;24.93;56.41;92741.13;5032326;28;20186;-70
2022/08/25 10:09:33;;;;;;;14.52;9.45;;;;;;;24.78;54.20;92736.00;5031924;28;20229;-70
2022/08/25 10:12:03;;;;;;;16.05;8.57;;;;;;;24.76;55.20;92738.25;5047050;28;20187;-70
2022/08/25 10:14:35;;;;;;;15.90;8.82;;;;;;;24.77;54.45;92734.44;5031753;28;20226;-70
2022/08/25 10:17:24;;;;;;;20.20;9.77;;;;;;;24.97;56.88;92741.16;5032054;28;20651;-71
2022/08/25 10:20:11;;;;;;;13.63;9.52;;;;;;;24.35;57.71;92734.59;5030551;28;20253;-71
2022/08/25 10:22:42;;;;;;;14.65;8.75;;;;;;;24.84;56.10;92737.97;5032288;28;20182;-71
2022/08/25 10:25:11;;;;;;;18.40;8.43;;;;;;;24.56;58.69;92739.47;5031340;28;20221;-70
2022/08/25 10:28:08;;;;;;;13.40;9.43;;;;;;;25.09;55.68;92744.38;5032129;28;20243;-70
2022/08/25 10:30:45;;;;;;;16.52;8.48;;;;;;;25.11;57.46;92734.09;5039143;28;20218;-70
2022/08/25 10:33:29;;;;;;;14.27;9.00;;;;;;;24.53;56.99;92730.28;5051707;28;20213;-70
2022/08/25 10:36:16;;;;;;;21.77;8.85;;;;;;;24.65;58.27;92729.28;5040797;28;20244;-70
2022/08/25 10:39:03;;;;;;;15.55;8.75;;;;;;;24.83;56.65;92712.38;5031332;28;20217;-71
2022/08/25 10:41:44;;;;;;;16.17;8.35;;;;;;;24.40;57.35;92725.53;5030591;28;20233;-70
2022/08/25 10:47:44;;;;;;;16.80;8.68;;;;;;;25.81;52.90;92715.31;5024442;28;20204;-71
2022/08/25 10:50:31;;;;;;;14.20;8.30;;;;;;;25.38;57.49;92718.75;5033583;28;20289;-71
2022/08/25 10:53:00;;;;;;;15.00;8.88;;;;;;;25.05;55.95;92706.16;5051623;28;20182;-70
2022/08/25 10:55:38;;;;;;;13.35;8.43;;;;;;;25.56;54.30;92717.00;5043791;28;20226;-70
2022/08/25 10:58:33;;;;;;;8.20;7.38;;;;;;;25.38;50.79;92709.97;5030631;28;20186;-71
2022/08/25 11:01:08;;;;;;;15.85;8.13;;;;;;;25.47;50.67;92708.53;5031108;28;20229;-71
2022/08/25 11:03:33;;;;;;;19.85;8.25;;;;;;;25.53;50.18;92712.41;5030643;28;20182;-71
2022/08/25 11:06:03;;;;;;;16.73;8.43;;;;;;;25.08;52.72;92684.06;5031795;28;20249;-70
2022/08/25 11:08:58;;;;;;;14.20;8.50;;;;;;;25.76;50.75;92699.59;5030970;28;20230;-71
2022/08/25 11:11:41;;;;;;;15.65;8.15;;;;;;;25.95;48.94;92691.34;5029209;28;20195;-70
2022/08/25 11:14:17;;;;;;;18.88;7.78;;;;;;;25.79;51.85;92682.81;5021729;28;20249;-70
2022/08/25 11:16:51;;;;;;;13.52;7.50;;;;;;;25.41;50.48;92682.47;5048114;28;20216;-70
2022/08/25 11:19:19;;;;;;;19.38;8.60;;;;;;;25.56;52.61;92679.56;5050717;28;20226;-70
2022/08/25 11:22:03;;;;;;;14.70;10.25;;;;;;;25.65;50.92;92682.69;5050035;28;20209;-71
2022/08/25 11:24:34;;;;;;;12.13;8.45;;;;;;;25.56;53.47;92673.47;5049821;28;20229;-71
2022/08/25 11:27:03;;;;;;;15.90;8.48;;;;;;;25.38;52.44;92680.53;5031008;28;20199;-69
2022/08/25 11:29:34;;;;;;;19.52;8.95;;;;;;;26.17;49.93;92676.25;5030621;28;20245;-70
2022/08/25 11:32:00;;;;;;;18.50;8.07;;;;;;;26.26;52.75;92674.78;5030771;28;20190;-70